Time;durP1;ratioP1;P1;durP2;ratioP2;P2;SDS_P1;SDS_P2;PMS_P1;PMS_P2;Temp;Humidity;BMP_temperature;BMP_pressure;BME280_temperature;BME280_humidity;BME280_pressure;Samples;Min_cycle;Max_cycle;Signal;HPM_P1;HPM_P2
2021/04/08 00:00:14;;;;;;;17.50;8.25;;;;;;;1.28;67.24;99510.91;147645;1146;104518;-78
2021/04/08 00:03:18;;;;;;;16.42;8.95;;;;;;;1.29;67.31;99519.61;147613;1148;104542;-77
2021/04/08 00:06:21;;;;;;;16.12;7.85;;;;;;;1.27;67.02;99516.27;147720;1147;104656;-79
2021/04/08 00:09:25;;;;;;;16.77;7.90;;;;;;;1.28;67.11;99510.07;147749;1147;104481;-81
2021/04/08 00:12:28;;;;;;;14.98;7.78;;;;;;;1.29;67.11;99516.98;147797;1146;104544;-79
2021/04/08 00:15:31;;;;;;;16.80;8.08;;;;;;;1.32;66.90;99517.61;147741;1147;104583;-76
2021/04/08 00:18:35;;;;;;;18.00;7.80;;;;;;;1.38;66.87;99505.80;147864;1147;104564;-81
2021/04/08 00:21:38;;;;;;;14.13;7.78;;;;;;;1.46;66.61;99506.07;147758;1147;104467;-76
2021/04/08 00:24:42;;;;;;;12.73;7.97;;;;;;;1.49;66.61;99511.11;147730;1146;104552;-77
2021/04/08 00:27:46;;;;;;;16.57;7.92;;;;;;;1.54;66.56;99508.99;147815;1145;104474;-78
2021/04/08 00:30:49;;;;;;;13.30;7.60;;;;;;;1.60;67.25;99512.09;147652;1146;104637;-75
2021/04/08 00:33:53;;;;;;;14.50;7.30;;;;;;;1.63;67.21;99514.52;147362;1147;104545;-78
2021/04/08 00:36:56;;;;;;;14.00;7.35;;;;;;;1.66;66.64;99509.03;147702;1147;104534;-76
2021/04/08 00:39:59;;;;;;;14.07;7.17;;;;;;;1.69;67.21;99508.79;147678;1147;104492;-81
2021/04/08 00:43:03;;;;;;;14.73;7.17;;;;;;;1.71;66.59;99502.48;147743;1147;104550;-77
2021/04/08 00:46:06;;;;;;;15.23;7.80;;;;;;;1.76;67.19;99504.75;147686;1147;104529;-76
2021/04/08 00:49:09;;;;;;;15.93;8.10;;;;;;;1.81;66.48;99501.77;147411;1147;104622;-77
2021/04/08 00:52:13;;;;;;;13.13;7.15;;;;;;;1.84;66.84;99497.11;147689;1147;104601;-78
2021/04/08 00:55:18;;;;;;;14.35;7.80;;;;;;;1.86;67.09;99505.73;147670;1147;104546;-80
2021/04/08 00:58:22;;;;;;;14.47;8.03;;;;;;;1.88;66.23;99503.81;147667;1147;104547;-77
2021/04/08 01:01:25;;;;;;;17.00;8.45;;;;;;;1.91;66.63;99523.81;147781;1147;104624;-77
2021/04/08 01:04:29;;;;;;;15.15;8.75;;;;;;;1.92;66.73;99526.30;147728;1147;104548;-78
2021/04/08 01:07:33;;;;;;;15.30;8.25;;;;;;;1.91;66.16;99532.53;147766;1147;104466;-76
2021/04/08 01:10:37;;;;;;;14.10;8.57;;;;;;;1.93;66.92;99529.80;147500;1146;104473;-74
2021/04/08 01:13:41;;;;;;;16.07;8.43;;;;;;;1.92;67.41;99542.09;147707;1147;104541;-80
2021/04/08 01:16:54;;;;;;;14.68;8.53;;;;;;;1.92;66.96;99536.83;147730;1147;104639;-75
2021/04/08 01:20:44;;;;;;;17.40;8.80;;;;;;;1.91;66.56;99537.80;147707;1147;104551;-77
2021/04/08 01:24:23;;;;;;;16.35;7.80;;;;;;;1.94;66.79;99536.72;147184;1146;104751;-77
2021/04/08 01:27:58;;;;;;;15.32;8.05;;;;;;;1.96;66.88;99533.04;147585;1146;104553;-76
2021/04/08 01:31:05;;;;;;;19.48;9.48;;;;;;;1.96;66.80;99533.04;147298;1147;104874;-76
2021/04/08 01:34:13;;;;;;;16.75;9.53;;;;;;;2.00;66.16;99532.78;147317;1146;104704;-76
2021/04/08 01:37:22;;;;;;;17.00;8.57;;;;;;;1.96;65.91;99537.44;147518;1146;104561;-76
2021/04/08 01:40:26;;;;;;;15.35;8.55;;;;;;;1.97;65.86;99533.87;147178;1147;104868;-75
2021/04/08 01:43:34;;;;;;;16.77;8.60;;;;;;;1.94;66.26;99534.95;147278;1146;104506;-76
2021/04/08 01:46:41;;;;;;;15.40;8.55;;;;;;;1.98;66.75;99534.70;147524;1147;104560;-74
2021/04/08 01:49:45;;;;;;;14.95;8.00;;;;;;;2.00;66.46;99530.16;147234;1147;104638;-77
2021/04/08 01:52:51;;;;;;;14.53;8.28;;;;;;;2.02;65.85;99530.88;147752;1146;104579;-77
2021/04/08 01:55:58;;;;;;;16.48;9.40;;;;;;;2.02;66.58;99530.88;147765;1147;104549;-75
2021/04/08 01:59:02;;;;;;;17.73;9.48;;;;;;;2.04;66.68;99531.59;147639;1146;104545;-76
2021/04/08 02:02:06;;;;;;;15.78;8.73;;;;;;;2.06;65.96;99525.28;147669;1147;104481;-78
2021/04/08 02:05:14;;;;;;;17.00;9.30;;;;;;;2.07;65.47;99528.75;147594;1147;104608;-76
2021/04/08 02:08:18;;;;;;;16.27;8.40;;;;;;;2.08;66.85;99530.41;147636;1148;104614;-78
2021/04/08 02:11:23;;;;;;;15.00;8.45;;;;;;;2.11;66.70;99532.81;147565;1146;104371;-78
2021/04/08 02:14:28;;;;;;;14.45;8.20;;;;;;;2.09;65.94;99524.20;147702;1147;104857;-76
2021/04/08 02:17:33;;;;;;;15.28;8.70;;;;;;;2.10;65.89;99525.89;147626;1146;104452;-78
2021/04/08 02:20:37;;;;;;;13.98;8.05;;;;;;;2.10;66.48;99531.16;147751;1146;104727;-76
2021/04/08 02:23:42;;;;;;;14.68;8.58;;;;;;;2.11;65.68;99522.29;147750;1147;104467;-78
2021/04/08 02:26:47;;;;;;;15.38;8.83;;;;;;;2.08;66.53;99525.14;147494;1147;104931;-76
2021/04/08 02:29:51;;;;;;;14.58;8.95;;;;;;;2.08;65.43;99519.88;147365;1147;104466;-79
2021/04/08 02:32:55;;;;;;;14.93;8.85;;;;;;;2.08;66.21;99531.27;147662;1146;104534;-76
2021/04/08 02:36:00;;;;;;;15.70;9.20;;;;;;;2.06;65.92;99532.31;147765;1146;104599;-80
2021/04/08 02:39:06;;;;;;;15.78;8.90;;;;;;;2.08;66.14;99546.20;147779;1147;104471;-79
2021/04/08 02:42:11;;;;;;;18.27;9.00;;;;;;;2.08;66.14;99541.80;147557;1147;104542;-77
2021/04/08 02:45:15;;;;;;;16.12;8.90;;;;;;;2.07;66.50;99540.09;147762;1147;104550;-75
2021/04/08 02:48:22;;;;;;;15.48;9.20;;;;;;;2.09;65.84;99548.72;147403;1147;104477;-76
2021/04/08 02:51:30;;;;;;;18.02;9.90;;;;;;;2.11;66.18;99545.97;147757;1146;104596;-75
2021/04/08 02:54:41;;;;;;;16.75;9.35;;;;;;;2.12;66.14;99550.30;147302;1146;104559;-76
2021/04/08 02:57:54;;;;;;;16.12;9.40;;;;;;;2.13;65.63;99551.95;147278;1147;104579;-76
2021/04/08 03:01:02;;;;;;;20.00;11.53;;;;;;;2.12;66.62;99556.39;147384;1147;104470;-75
2021/04/08 03:04:07;;;;;;;16.55;9.43;;;;;;;2.12;65.80;99559.02;147705;1146;104470;-73
2021/04/08 03:07:11;;;;;;;16.77;9.28;;;;;;;2.16;65.77;99554.37;147751;1147;104745;-77
2021/04/08 03:10:15;;;;;;;19.33;9.47;;;;;;;2.20;65.67;99550.55;147686;1147;104473;-80
2021/04/08 03:13:21;;;;;;;17.15;9.43;;;;;;;2.21;66.51;99548.74;147804;1147;104537;-77
2021/04/08 03:16:28;;;;;;;16.80;9.98;;;;;;;2.20;66.40;99550.55;147660;1147;104512;-74
2021/04/08 03:19:32;;;;;;;15.53;9.60;;;;;;;2.20;65.46;99547.08;147783;1147;104473;-74
2021/04/08 03:22:39;;;;;;;19.32;10.28;;;;;;;2.20;65.57;99550.55;147727;1147;104445;-74
2021/04/08 03:25:43;;;;;;;14.50;7.93;;;;;;;2.21;65.60;99552.20;147834;1147;104557;-72
2021/04/08 03:28:47;;;;;;;16.60;9.28;;;;;;;2.23;65.64;99550.29;147757;1148;104585;-76
2021/04/08 03:31:51;;;;;;;15.15;8.25;;;;;;;2.24;65.73;99549.35;147705;1147;104459;-74
2021/04/08 03:34:55;;;;;;;17.20;9.73;;;;;;;2.26;66.70;99565.86;147764;1147;104475;-77
2021/04/08 03:37:58;;;;;;;15.60;8.80;;;;;;;2.26;66.22;99560.59;147547;1146;104537;-75
2021/04/08 03:41:02;;;;;;;17.00;10.30;;;;;;;2.29;65.81;99560.38;147658;1147;104934;-79
2021/04/08 03:44:08;;;;;;;19.30;10.58;;;;;;;2.29;66.49;99560.38;147762;1147;104531;-75
2021/04/08 03:47:13;;;;;;;15.25;9.60;;;;;;;2.32;65.45;99562.76;147711;1147;104482;-75
2021/04/08 03:50:17;;;;;;;18.10;10.10;;;;;;;2.32;65.63;99575.09;147740;1147;104550;-75
2021/04/08 03:53:22;;;;;;;20.45;9.85;;;;;;;2.32;66.41;99575.92;147498;1147;104577;-76
2021/04/08 03:56:26;;;;;;;15.23;9.30;;;;;;;2.31;66.09;99581.30;147296;1147;104591;-76
2021/04/08 03:59:31;;;;;;;19.75;10.60;;;;;;;2.27;66.33;99580.72;147384;1147;104604;-76
2021/04/08 04:02:36;;;;;;;19.33;10.87;;;;;;;2.28;67.01;99577.11;147735;1147;104531;-79
2021/04/08 04:05:41;;;;;;;16.27;9.27;;;;;;;2.31;67.35;99574.26;147743;1146;104566;-72
2021/04/08 04:08:45;;;;;;;18.32;10.08;;;;;;;2.33;66.62;99580.24;147753;1147;104577;-75
2021/04/08 04:11:50;;;;;;;21.17;10.97;;;;;;;2.34;66.86;99581.91;147734;1147;104503;-76
2021/04/08 04:14:54;;;;;;;18.15;11.08;;;;;;;2.38;67.51;99584.31;147602;1146;104446;-76
2021/04/08 04:17:59;;;;;;;24.72;15.03;;;;;;;2.38;67.71;99576.41;147432;1147;104944;-75
2021/04/08 04:21:02;;;;;;;23.10;12.77;;;;;;;2.38;67.57;99585.14;147485;1147;104476;-78
2021/04/08 04:24:06;;;;;;;24.20;13.88;;;;;;;2.37;67.07;99588.75;147406;1147;104618;-74
2021/04/08 04:27:10;;;;;;;23.50;12.60;;;;;;;2.38;67.61;99584.31;147514;1147;104592;-73
2021/04/08 04:30:15;;;;;;;20.85;10.95;;;;;;;2.36;66.94;99593.16;147688;1147;104457;-74
2021/04/08 04:33:19;;;;;;;24.35;13.18;;;;;;;2.36;67.21;99593.16;147626;1147;104546;-73
2021/04/08 04:36:22;;;;;;;21.33;12.37;;;;;;;2.42;67.02;99591.84;147527;1147;104473;-72
2021/04/08 04:39:25;;;;;;;50.43;19.90;;;;;;;2.52;67.18;99590.20;147407;1148;104601;-77
2021/04/08 04:42:29;;;;;;;23.10;13.53;;;;;;;2.59;67.59;99593.20;147715;1147;104457;-77
2021/04/08 04:45:32;;;;;;;20.37;12.90;;;;;;;2.67;67.69;99589.97;147810;1147;104461;-76
2021/04/08 04:48:37;;;;;;;18.87;12.15;;;;;;;2.72;67.11;99593.09;147748;1147;104539;-73
2021/04/08 04:51:40;;;;;;;22.50;14.20;;;;;;;2.74;68.50;99597.27;147731;1146;104496;-71
2021/04/08 04:54:43;;;;;;;42.55;27.45;;;;;;;2.78;68.25;99591.78;147725;1147;104626;-73
2021/04/08 04:57:47;;;;;;;25.33;16.87;;;;;;;2.79;67.11;99596.08;147776;1147;104513;-74
2021/04/08 05:00:50;;;;;;;31.57;21.10;;;;;;;2.78;68.26;99602.31;147773;1147;104556;-75
2021/04/08 05:03:53;;;;;;;49.95;28.40;;;;;;;2.76;68.21;99599.80;147719;1147;104522;-74
2021/04/08 05:06:56;;;;;;;38.42;24.57;;;;;;;2.72;67.89;99606.27;147734;1147;104553;-74
2021/04/08 05:09:59;;;;;;;30.15;19.35;;;;;;;2.72;68.58;99606.27;147631;1147;104900;-76
2021/04/08 05:13:02;;;;;;;26.47;16.60;;;;;;;2.78;68.83;99607.59;147762;1148;104516;-77
2021/04/08 05:16:06;;;;;;;238.25;130.20;;;;;;;2.85;69.15;99619.30;147774;1147;104479;-74
2021/04/08 05:19:09;;;;;;;61.08;36.58;;;;;;;2.90;69.08;99628.53;147578;1146;104456;-74
2021/04/08 05:22:13;;;;;;;52.53;36.63;;;;;;;2.94;68.47;99630.00;147307;1146;104944;-75
2021/04/08 05:25:16;;;;;;;32.93;24.17;;;;;;;2.95;67.46;99631.66;147646;1147;104540;-74
2021/04/08 05:28:20;;;;;;;188.57;90.33;;;;;;;2.94;68.04;99642.31;147764;1147;104525;-74
2021/04/08 05:31:23;;;;;;;260.05;150.40;;;;;;;2.93;68.56;99643.28;147764;1147;104466;-74
2021/04/08 05:34:26;;;;;;;240.18;122.65;;;;;;;2.92;68.60;99647.69;147728;1147;104565;-79
2021/04/08 05:37:30;;;;;;;348.23;163.28;;;;;;;2.94;68.54;99652.85;147803;1147;104545;-79
2021/04/08 05:40:33;;;;;;;203.90;125.85;;;;;;;3.00;69.61;99649.73;147670;1146;104546;-78
2021/04/08 05:43:37;;;;;;;261.68;174.90;;;;;;;3.05;68.61;99660.77;147741;1147;104535;-75
2021/04/08 05:46:41;;;;;;;115.97;69.50;;;;;;;3.10;69.00;99657.79;147789;1147;104548;-73
2021/04/08 05:49:44;;;;;;;494.87;292.47;;;;;;;3.12;68.88;99666.41;147690;1147;104545;-74
2021/04/08 05:52:47;;;;;;;481.60;234.65;;;;;;;3.12;67.99;99669.05;147546;1147;104584;-79
2021/04/08 05:55:50;;;;;;;839.32;557.35;;;;;;;3.11;68.84;99672.63;147513;1147;104502;-78
2021/04/08 05:58:53;;;;;;;118.20;62.15;;;;;;;3.13;69.06;99675.98;147418;1147;104946;-74
2021/04/08 06:01:56;;;;;;;264.65;112.65;;;;;;;3.13;69.49;99674.17;147459;1147;104585;-75
2021/04/08 06:05:00;;;;;;;514.95;197.30;;;;;;;3.13;69.32;99683.89;147689;1148;104546;-73
2021/04/08 06:08:03;;;;;;;153.42;78.95;;;;;;;3.15;68.73;99684.61;147772;1147;104495;-72
2021/04/08 06:11:06;;;;;;;105.92;55.23;;;;;;;3.20;68.25;99693.01;147734;1147;104580;-74
2021/04/08 06:14:10;;;;;;;52.50;30.90;;;;;;;3.27;68.26;99690.72;147749;1147;104543;-76
2021/04/08 06:17:13;;;;;;;45.12;28.12;;;;;;;3.36;69.42;99699.72;147840;1147;104563;-71
2021/04/08 06:20:18;;;;;;;43.87;27.10;;;;;;;3.46;68.10;99705.94;147732;1147;104582;-72
2021/04/08 06:23:21;;;;;;;36.15;23.50;;;;;;;3.52;69.30;99702.80;147679;1147;104546;-72
2021/04/08 06:26:24;;;;;;;166.43;70.13;;;;;;;3.52;68.77;99706.30;147748;1148;104649;-74
2021/04/08 06:29:27;;;;;;;253.22;106.75;;;;;;;3.54;68.71;99703.52;147762;1148;104498;-68
2021/04/08 06:32:31;;;;;;;238.68;94.77;;;;;;;3.50;68.79;99717.91;147649;1147;104537;-73
2021/04/08 06:35:34;;;;;;;425.47;158.90;;;;;;;3.53;69.68;99718.52;147508;1146;104922;-71
2021/04/08 06:38:37;;;;;;;62.83;30.92;;;;;;;3.63;69.06;99728.34;147231;1147;104566;-71
2021/04/08 06:41:41;;;;;;;32.17;19.65;;;;;;;3.69;69.62;99722.58;147194;1147;104872;-71
2021/04/08 06:44:47;;;;;;;530.17;238.72;;;;;;;3.76;68.19;99731.69;147498;1146;104577;-73
2021/04/08 06:47:59;;;;;;;67.00;36.65;;;;;;;3.72;69.20;99730.27;147724;1147;104496;-74
2021/04/08 06:51:04;;;;;;;32.23;19.17;;;;;;;3.74;68.47;99730.98;147722;1147;104471;-75
2021/04/08 06:54:09;;;;;;;34.08;23.40;;;;;;;3.77;68.91;99746.55;148463;1146;104592;-73
2021/04/08 06:57:16;;;;;;;39.73;24.25;;;;;;;3.86;68.83;99743.18;147859;1147;104668;-73
2021/04/08 07:00:20;;;;;;;90.37;33.33;;;;;;;3.97;69.77;99752.06;147885;1148;104657;-74
2021/04/08 07:03:24;;;;;;;468.48;232.35;;;;;;;4.03;68.67;99755.03;147901;1147;105017;-71
2021/04/08 07:06:27;;;;;;;144.17;75.70;;;;;;;4.15;69.16;99769.04;147801;1146;104546;-72
2021/04/08 07:09:30;;;;;;;106.00;52.58;;;;;;;4.19;68.55;99765.19;147340;1147;104441;-70
2021/04/08 07:12:35;;;;;;;81.97;34.75;;;;;;;4.11;69.17;99762.34;147560;1147;104538;-69
2021/04/08 07:15:38;;;;;;;55.60;26.00;;;;;;;4.04;68.83;99761.14;148377;1147;105537;-70
2021/04/08 07:18:42;;;;;;;236.47;113.88;;;;;;;4.01;68.93;99777.25;148107;1147;104557;-70
2021/04/08 07:21:45;;;;;;;152.22;81.78;;;;;;;4.03;68.85;99780.60;148086;1147;104572;-71
2021/04/08 07:24:50;;;;;;;602.55;407.77;;;;;;;4.05;68.81;99781.31;147220;1147;104575;-70
2021/04/08 07:27:53;;;;;;;161.75;82.35;;;;;;;4.12;69.57;99787.79;147597;1147;104538;-70
2021/04/08 07:30:56;;;;;;;122.05;53.83;;;;;;;4.23;68.84;99793.02;147509;1147;104550;-73
2021/04/08 07:34:03;;;;;;;149.25;69.15;;;;;;;4.38;69.06;99796.23;147725;1147;104452;-71
2021/04/08 07:37:07;;;;;;;25.60;14.85;;;;;;;4.53;68.67;99799.44;147929;1147;104465;-70
2021/04/08 07:40:17;;;;;;;27.45;17.90;;;;;;;4.63;68.51;99810.09;147667;1148;104384;-71
2021/04/08 07:43:21;;;;;;;84.15;47.03;;;;;;;4.65;69.14;99813.44;147552;1148;104534;-71
2021/04/08 07:46:37;;;;;;;64.05;41.95;;;;;;;4.60;68.69;99824.40;147564;1147;104908;-71
2021/04/08 07:49:41;;;;;;;19.67;12.43;;;;;;;4.66;68.77;99821.25;147610;1147;104887;-71
2021/04/08 07:52:46;;;;;;;11.13;8.43;;;;;;;4.60;68.71;99837.61;147425;1146;104550;-71
2021/04/08 07:55:49;;;;;;;11.70;8.55;;;;;;;4.74;69.04;99838.28;147722;1147;104594;-73
2021/04/08 07:59:15;;;;;;;20.62;10.10;;;;;;;4.90;68.36;99841.33;147865;1146;104583;-70
2021/04/08 08:02:24;;;;;;;311.43;135.40;;;;;;;5.03;68.49;99852.57;148239;1146;104634;-70
2021/04/08 08:05:29;;;;;;;24.00;12.82;;;;;;;5.13;67.60;99857.09;147781;1147;104597;-72
2021/04/08 08:08:38;;;;;;;13.90;8.33;;;;;;;5.06;67.76;99870.84;147644;1147;104455;-70
2021/04/08 08:11:42;;;;;;;36.25;24.90;;;;;;;4.94;68.09;99871.83;147903;1146;104864;-72
2021/04/08 08:14:45;;;;;;;28.90;15.68;;;;;;;4.89;67.78;99879.33;147495;1147;104636;-70
2021/04/08 08:17:49;;;;;;;116.88;49.93;;;;;;;4.75;67.76;99884.88;147698;1147;104460;-69
2021/04/08 08:20:55;;;;;;;65.50;28.80;;;;;;;4.82;68.08;99888.71;147546;1148;104604;-71
2021/04/08 08:23:59;;;;;;;41.50;19.37;;;;;;;4.79;67.75;99891.59;147587;1145;104538;-71
2021/04/08 08:27:03;;;;;;;19.07;11.05;;;;;;;4.72;67.56;99910.59;147508;1146;104492;-70
2021/04/08 08:30:09;;;;;;;27.80;15.85;;;;;;;4.78;68.18;99900.50;147542;1147;104634;-71
2021/04/08 08:33:17;;;;;;;9.05;5.65;;;;;;;4.78;67.09;99908.43;147819;1146;104503;-71
2021/04/08 08:36:20;;;;;;;28.32;13.50;;;;;;;4.67;68.35;99907.48;147179;1146;104531;-71
2021/04/08 08:39:25;;;;;;;18.85;12.18;;;;;;;4.63;68.12;99911.33;147743;1147;104463;-74
2021/04/08 08:42:29;;;;;;;10.88;6.50;;;;;;;4.50;67.92;99929.12;147901;1147;104562;-69
2021/04/08 08:45:34;;;;;;;57.35;30.80;;;;;;;4.40;68.06;99930.83;147755;1147;104698;-71
2021/04/08 08:48:38;;;;;;;24.85;14.78;;;;;;;4.38;68.30;99938.04;147563;1147;104461;-73
2021/04/08 08:51:43;;;;;;;53.45;32.73;;;;;;;4.39;67.97;99953.77;147706;1147;104545;-70
2021/04/08 08:54:47;;;;;;;22.42;13.58;;;;;;;4.51;67.78;99944.87;147857;1147;104451;-70
2021/04/08 08:57:52;;;;;;;15.65;7.70;;;;;;;4.56;67.71;99957.73;147853;1146;104551;-71
2021/04/08 09:00:57;;;;;;;11.97;6.50;;;;;;;4.64;67.81;99954.48;147421;1146;104600;-70
2021/04/08 09:04:00;;;;;;;160.78;68.00;;;;;;;4.63;67.91;99964.19;147705;1147;104473;-70
2021/04/08 09:07:08;;;;;;;16.65;8.35;;;;;;;4.78;68.35;99969.23;147486;1147;104665;-71
2021/04/08 09:10:16;;;;;;;32.98;15.13;;;;;;;5.00;67.62;99971.80;147766;1147;104508;-71
2021/04/08 09:13:20;;;;;;;56.35;28.67;;;;;;;4.99;66.96;99975.42;147790;1146;104544;-71
2021/04/08 09:16:23;;;;;;;17.32;11.33;;;;;;;5.00;66.98;99982.38;147593;1147;104755;-71
2021/04/08 09:19:30;;;;;;;67.22;32.95;;;;;;;5.03;66.87;99990.08;147350;1146;104553;-70
2021/04/08 09:22:33;;;;;;;93.52;51.13;;;;;;;5.09;66.33;99986.92;147427;1145;104519;-71
2021/04/08 09:25:39;;;;;;;72.35;37.73;;;;;;;5.03;66.78;99990.08;147607;1147;104515;-71
2021/04/08 09:28:42;;;;;;;17.05;9.68;;;;;;;5.17;67.01;99988.11;147884;1147;104974;-72
2021/04/08 09:31:45;;;;;;;112.52;67.03;;;;;;;5.39;66.98;99997.77;147785;1147;104812;-72
2021/04/08 09:35:09;;;;;;;16.62;9.75;;;;;;;5.49;65.90;100004.83;147634;1147;104541;-72
2021/04/08 09:38:22;;;;;;;12.98;6.37;;;;;;;5.48;65.59;99997.84;147754;1147;104471;-70
2021/04/08 09:41:40;;;;;;;13.55;6.80;;;;;;;5.37;66.24;100000.56;147738;1146;104550;-70
2021/04/08 09:44:45;;;;;;;95.47;41.02;;;;;;;5.46;66.73;100010.37;147791;1147;104500;-71
2021/04/08 09:48:05;;;;;;;52.25;26.37;;;;;;;5.45;66.06;100014.00;147725;1145;104547;-71
2021/04/08 09:51:09;;;;;;;31.23;15.27;;;;;;;5.35;66.00;100017.51;147764;1147;104537;-72
2021/04/08 09:54:15;;;;;;;9.63;5.90;;;;;;;5.21;65.51;100018.64;147922;1147;104519;-70
2021/04/08 09:57:37;;;;;;;18.20;9.35;;;;;;;5.10;66.54;100033.58;147815;1147;104492;-72
2021/04/08 10:00:38;;;;;;;;;;;;;;;5.15;66.51;100035.01;147436;1147;104559;-72
2021/04/08 10:03:43;;;;;;;13.60;6.95;;;;;;;5.15;65.87;100040.30;147231;1147;104550;-71
2021/04/08 10:06:59;;;;;;;6.73;4.13;;;;;;;5.09;66.58;100039.82;147450;1147;104471;-68
2021/04/08 10:10:02;;;;;;;10.97;5.77;;;;;;;5.21;66.59;100042.44;147296;1148;104479;-70
2021/04/08 10:13:16;;;;;;;56.65;25.82;;;;;;;5.37;67.22;100048.19;147173;1147;104516;-71
2021/04/08 10:16:19;;;;;;;235.75;137.70;;;;;;;5.60;66.61;100045.44;147793;1147;104483;-75
2021/04/08 10:19:30;;;;;;;27.03;15.07;;;;;;;5.66;66.42;100069.62;147689;1147;104524;-69
2021/04/08 10:22:44;;;;;;;45.25;20.52;;;;;;;5.60;66.68;100056.89;147666;1147;104551;-73
2021/04/08 10:25:56;;;;;;;42.53;22.32;;;;;;;5.59;66.56;100064.95;147579;1147;104544;-71
2021/04/08 10:29:03;;;;;;;230.12;127.65;;;;;;;5.62;66.74;100067.33;147774;1148;104543;-72
2021/04/08 10:32:07;;;;;;;38.35;19.37;;;;;;;5.68;66.08;100057.09;147609;1147;104528;-72
2021/04/08 10:35:24;;;;;;;63.50;33.67;;;;;;;5.74;66.63;100074.28;147834;1147;104627;-74
2021/04/08 10:38:28;;;;;;;27.98;15.25;;;;;;;5.90;65.59;100063.25;147819;1147;104559;-73
2021/04/08 10:41:31;;;;;;;59.40;31.87;;;;;;;6.13;66.13;100079.91;147549;1147;104559;-76
2021/04/08 10:44:35;;;;;;;50.03;16.73;;;;;;;6.12;64.88;100070.30;147893;1147;104552;-73
2021/04/08 10:47:39;;;;;;;52.78;17.60;;;;;;;6.25;65.83;100070.91;147850;1148;104503;-72
2021/04/08 10:50:42;;;;;;;24.95;9.18;;;;;;;6.58;65.62;100071.69;147942;1147;104533;-74
2021/04/08 10:53:48;;;;;;;33.10;17.80;;;;;;;6.83;66.26;100080.14;147818;1147;104503;-73
2021/04/08 10:56:52;;;;;;;50.08;27.32;;;;;;;6.92;64.99;100079.34;147818;1147;104453;-71
2021/04/08 10:59:56;;;;;;;18.37;9.43;;;;;;;6.88;63.62;100086.73;147726;1147;104489;-72
2021/04/08 11:03:00;;;;;;;16.02;9.10;;;;;;;6.82;64.64;100083.78;147866;1147;104470;-73
2021/04/08 11:06:03;;;;;;;61.20;33.25;;;;;;;6.83;64.22;100099.57;147701;1147;104655;-73
2021/04/08 11:09:07;;;;;;;30.67;14.77;;;;;;;6.72;64.78;100102.30;147711;1146;104542;-73
2021/04/08 11:12:20;;;;;;;23.15;11.97;;;;;;;6.65;64.76;100109.93;147873;1147;104462;-72
2021/04/08 11:15:24;;;;;;;27.50;15.20;;;;;;;6.74;65.71;100104.83;147747;1147;104656;-71
2021/04/08 11:18:28;;;;;;;16.57;8.45;;;;;;;6.96;66.15;100101.98;147779;1147;104825;-72
2021/04/08 11:21:34;;;;;;;10.72;6.30;;;;;;;6.95;62.46;100107.41;147790;1147;104523;-71
2021/04/08 11:24:38;;;;;;;15.18;9.45;;;;;;;6.59;63.38;100104.33;147900;1147;104470;-73
2021/04/08 11:27:44;;;;;;;16.57;10.70;;;;;;;6.53;64.27;100110.98;147784;1147;104444;-73
2021/04/08 11:30:47;;;;;;;14.05;7.17;;;;;;;6.75;64.07;100119.75;147705;1147;104549;-73
2021/04/08 11:33:58;;;;;;;10.43;6.50;;;;;;;6.98;62.19;100118.59;147474;1148;104591;-74
2021/04/08 11:37:01;;;;;;;15.23;7.90;;;;;;;7.16;62.53;100107.35;147866;1148;104536;-72
2021/04/08 11:40:07;;;;;;;12.47;6.80;;;;;;;7.29;63.54;100102.64;147641;1147;104542;-71
2021/04/08 11:43:22;;;;;;;12.27;6.83;;;;;;;7.28;63.80;100117.73;147750;1146;104470;-72
2021/04/08 11:46:28;;;;;;;17.25;9.70;;;;;;;7.22;62.74;100133.38;147729;1145;104461;-72
2021/04/08 11:49:41;;;;;;;43.73;3.93;;;;;;;6.47;63.96;100191.03;147988;1147;104520;-71
2021/04/08 11:53:01;;;;;;;4.58;2.50;;;;;;;4.74;68.04;100169.51;147867;1147;104617;-70
2021/04/08 11:56:22;;;;;;;4.67;2.60;;;;;;;3.97;71.32;100161.23;147758;1147;104916;-72
2021/04/08 11:59:33;;;;;;;6.05;3.20;;;;;;;3.63;71.12;100153.13;147635;1148;104494;-71
2021/04/08 12:02:37;;;;;;;8.43;3.90;;;;;;;3.53;71.83;100159.06;147730;1147;104535;-71
2021/04/08 12:05:41;;;;;;;50.90;21.90;;;;;;;3.60;72.08;100153.34;147833;1146;104543;-71
2021/04/08 12:08:45;;;;;;;21.50;10.55;;;;;;;3.84;72.78;100146.28;147501;1147;104612;-72
2021/04/08 12:11:54;;;;;;;16.50;8.75;;;;;;;4.07;72.27;100154.31;147844;1147;104965;-70
2021/04/08 12:14:59;;;;;;;9.33;5.22;;;;;;;4.28;72.73;100150.06;147591;1147;104539;-72
2021/04/08 12:18:02;;;;;;;9.13;4.30;;;;;;;4.49;72.85;100154.69;147838;1147;104549;-68
2021/04/08 12:21:12;;;;;;;8.05;4.45;;;;;;;4.39;72.03;100174.81;147624;1147;104470;-73
2021/04/08 12:24:16;;;;;;;116.93;63.90;;;;;;;4.33;73.32;100184.91;147666;1147;104533;-69
2021/04/08 12:27:20;;;;;;;12.20;6.10;;;;;;;4.20;73.25;100193.86;147503;1147;104513;-69
2021/04/08 12:30:23;;;;;;;5.65;3.37;;;;;;;4.04;72.91;100191.48;147309;1147;104550;-68
2021/04/08 12:33:28;;;;;;;4.87;2.55;;;;;;;3.85;73.06;100198.12;147246;1147;104482;-69
2021/04/08 12:36:31;;;;;;;14.53;6.67;;;;;;;3.68;74.34;100193.23;147686;1147;104470;-70
2021/04/08 12:39:35;;;;;;;11.88;6.33;;;;;;;3.79;75.48;100190.66;147366;1146;104616;-69
2021/04/08 12:42:38;;;;;;;14.75;6.75;;;;;;;3.96;74.09;100185.94;147422;1146;104512;-72
2021/04/08 12:45:41;;;;;;;18.07;7.90;;;;;;;4.19;75.10;100192.16;147296;1147;104464;-69
2021/04/08 12:48:44;;;;;;;26.73;12.97;;;;;;;4.42;75.25;100191.28;147499;1145;104471;-69
2021/04/08 12:51:48;;;;;;;6.65;4.20;;;;;;;4.63;75.59;100206.48;147078;1146;104600;-72
2021/04/08 12:54:51;;;;;;;13.05;5.25;;;;;;;5.00;74.98;100207.14;147309;1147;104500;-71
2021/04/08 12:57:55;;;;;;;6.17;3.65;;;;;;;5.06;74.06;100200.54;147462;1147;104566;-70
2021/04/08 13:00:58;;;;;;;9.00;4.55;;;;;;;5.23;74.63;100215.10;147696;1147;104454;-70
2021/04/08 13:04:01;;;;;;;6.33;3.90;;;;;;;5.35;72.49;100213.30;147668;1147;104853;-71
2021/04/08 13:07:04;;;;;;;13.37;5.67;;;;;;;5.42;73.73;100220.63;147690;1147;104481;-70
2021/04/08 13:10:09;;;;;;;9.60;5.00;;;;;;;5.54;72.02;100224.11;147390;1147;104896;-70
2021/04/08 13:13:12;;;;;;;9.57;6.03;;;;;;;5.58;71.71;100217.64;147417;1147;104471;-71
2021/04/08 13:16:15;;;;;;;9.35;6.60;;;;;;;5.59;71.73;100229.06;147758;1147;104489;-70
2021/04/08 13:19:18;;;;;;;8.65;5.72;;;;;;;5.61;71.14;100233.26;147869;1147;104547;-70
2021/04/08 13:22:22;;;;;;;11.80;5.92;;;;;;;5.69;71.85;100216.77;147824;1147;104672;-71
2021/04/08 13:25:26;;;;;;;6.10;4.20;;;;;;;5.82;70.67;100220.11;147800;1146;104610;-71
2021/04/08 13:28:29;;;;;;;6.30;4.00;;;;;;;6.05;70.49;100222.75;147861;1146;104892;-72
2021/04/08 13:31:32;;;;;;;6.05;3.83;;;;;;;6.37;67.58;100222.77;147588;1147;104454;-70
2021/04/08 13:34:36;;;;;;;7.55;3.40;;;;;;;6.23;67.79;100223.87;147116;1147;104457;-71
2021/04/08 13:37:39;;;;;;;6.40;3.95;;;;;;;6.03;67.54;100224.69;147655;1146;104942;-68
2021/04/08 13:40:42;;;;;;;9.50;5.97;;;;;;;6.05;69.70;100228.88;147973;1146;104591;-72
2021/04/08 13:43:45;;;;;;;10.88;6.53;;;;;;;6.23;69.28;100228.34;147603;1146;104559;-71
2021/04/08 13:46:49;;;;;;;6.85;4.87;;;;;;;6.17;67.92;100227.03;147431;1147;104935;-75
2021/04/08 13:49:52;;;;;;;6.70;4.57;;;;;;;6.25;69.78;100221.11;147391;1147;104492;-73
2021/04/08 13:52:55;;;;;;;21.10;12.35;;;;;;;6.47;69.12;100228.14;147410;1148;104484;-72
2021/04/08 13:55:58;;;;;;;8.03;5.35;;;;;;;6.52;69.04;100225.93;147612;1147;104512;-69
2021/04/08 13:59:01;;;;;;;7.62;4.78;;;;;;;6.56;67.19;100237.95;147643;1147;104457;-75
2021/04/08 14:02:05;;;;;;;6.37;4.03;;;;;;;6.61;67.26;100238.42;147715;1147;104598;-70